KLM2651 LFMN-EHAM
Flight info
| Callsign | KLM2651 |
|---|---|
| Flight time | 1h 30m |
| Altitude | 38000 |
| Route | IRMAR DCT KINES DCT VANAS DCT MOBLO DCT UBIMA DCT GILIR DCT PENDU DCT IXILU DCT EPL DCT ROUSY DCT BUB Y28 HELEN |
| Aircraft | A321/M-SDE3FGHIRWY/LB1 |
Departure
| Time | 2026-05-06 08:33 |
|---|---|
| Airport | Nice-Côte d'Azur Airport (LFMN) |
Arrival
| Time | 2026-05-06 10:03 |
|---|---|
| Airport | Amsterdam Airport Schiphol (EHAM) |
| Time | Latitude | Longitude | Altitude | Speed | Heading |
|---|---|---|---|---|---|
| 2026-05-06 08:10 | 43.66419 | 7.21354 | 22 ft | 0 kts | 349° |
| 2026-05-06 08:26 | 43.66411 | 7.21356 | 22 ft | 3 kts | 349° |
| 2026-05-06 08:26 | 43.66392 | 7.21361 | 22 ft | 3 kts | 349° |
| 2026-05-06 08:26 | 43.66374 | 7.21365 | 24 ft | 3 kts | 349° |
| 2026-05-06 08:26 | 43.66356 | 7.21372 | 24 ft | 3 kts | 311° |
| 2026-05-06 08:27 | 43.66349 | 7.21394 | 26 ft | 3 kts | 252° |
| 2026-05-06 08:27 | 43.66351 | 7.21401 | 24 ft | 0 kts | 242° |
| 2026-05-06 08:28 | 43.66332 | 7.21373 | 22 ft | 9 kts | 226° |
| 2026-05-06 08:28 | 43.66249 | 7.21289 | 23 ft | 18 kts | 212° |
| 2026-05-06 08:28 | 43.66155 | 7.21168 | 22 ft | 19 kts | 224° |
| 2026-05-06 08:28 | 43.66063 | 7.21043 | 22 ft | 18 kts | 225° |
| 2026-05-06 08:29 | 43.65975 | 7.20920 | 22 ft | 18 kts | 225° |
| 2026-05-06 08:29 | 43.65885 | 7.20801 | 22 ft | 20 kts | 221° |
| 2026-05-06 08:29 | 43.65767 | 7.20645 | 22 ft | 24 kts | 225° |
| 2026-05-06 08:29 | 43.65639 | 7.20467 | 22 ft | 27 kts | 224° |
| 2026-05-06 08:30 | 43.65508 | 7.20291 | 22 ft | 25 kts | 225° |
| 2026-05-06 08:30 | 43.65375 | 7.20191 | 22 ft | 21 kts | 163° |
| 2026-05-06 08:30 | 43.65267 | 7.20312 | 22 ft | 20 kts | 133° |
| 2026-05-06 08:30 | 43.65171 | 7.20440 | 22 ft | 19 kts | 140° |
| 2026-05-06 08:31 | 43.65055 | 7.20449 | 22 ft | 19 kts | 212° |
| 2026-05-06 08:31 | 43.64941 | 7.20291 | 22 ft | 26 kts | 225° |
| 2026-05-06 08:31 | 43.64803 | 7.20137 | 22 ft | 24 kts | 187° |
| 2026-05-06 08:31 | 43.64716 | 7.20274 | 22 ft | 18 kts | 84° |
| 2026-05-06 08:32 | 43.64740 | 7.20337 | 22 ft | 0 kts | 46° |
| 2026-05-06 08:32 | 43.64743 | 7.20340 | 22 ft | 3 kts | 46° |
| 2026-05-06 08:32 | 43.64940 | 7.20614 | 22 ft | 89 kts | 45° |
| 2026-05-06 08:32 | 43.65591 | 7.21486 | 67 ft | 163 kts | 38° |
| 2026-05-06 08:33 | 43.66407 | 7.22715 | 756 ft | 179 kts | 54° |
| 2026-05-06 08:33 | 43.66624 | 7.24390 | 1619 ft | 184 kts | 106° |
| 2026-05-06 08:33 | 43.65955 | 7.25905 | 2316 ft | 197 kts | 132° |
| 2026-05-06 08:33 | 43.64966 | 7.27335 | 2727 ft | 212 kts | 137° |
| 2026-05-06 08:34 | 43.63876 | 7.28795 | 2956 ft | 224 kts | 138° |
| 2026-05-06 08:34 | 43.61494 | 7.31609 | 3997 ft | 226 kts | 164° |
| 2026-05-06 08:34 | 43.59963 | 7.31695 | 4516 ft | 221 kts | 202° |
| 2026-05-06 08:35 | 43.58627 | 7.30704 | 5057 ft | 218 kts | 216° |
| 2026-05-06 08:35 | 43.57336 | 7.29589 | 5705 ft | 219 kts | 216° |
| 2026-05-06 08:35 | 43.56049 | 7.28462 | 6505 ft | 219 kts | 220° |
| 2026-05-06 08:35 | 43.55067 | 7.26906 | 7228 ft | 216 kts | 247° |
| 2026-05-06 08:36 | 43.54774 | 7.24902 | 7975 ft | 217 kts | 273° |
| 2026-05-06 08:36 | 43.55240 | 7.22906 | 8708 ft | 226 kts | 300° |
| 2026-05-06 08:36 | 43.56204 | 7.21168 | 9437 ft | 231 kts | 303° |
| 2026-05-06 08:36 | 43.57207 | 7.19420 | 10129 ft | 234 kts | 303° |
| 2026-05-06 08:37 | 43.58222 | 7.17650 | 10804 ft | 237 kts | 303° |
| 2026-05-06 08:37 | 43.59246 | 7.15858 | 11494 ft | 239 kts | 302° |
| 2026-05-06 08:37 | 43.60302 | 7.14061 | 12192 ft | 244 kts | 309° |
| 2026-05-06 08:37 | 43.61670 | 7.12594 | 12851 ft | 258 kts | 326° |
| 2026-05-06 08:38 | 43.63436 | 7.11639 | 13073 ft | 287 kts | 338° |
| 2026-05-06 08:38 | 43.65413 | 7.10777 | 13272 ft | 310 kts | 338° |
| 2026-05-06 08:38 | 43.67549 | 7.09843 | 13446 ft | 334 kts | 338° |
| 2026-05-06 08:38 | 43.69833 | 7.08847 | 13708 ft | 352 kts | 338° |
| 2026-05-06 08:39 | 43.72196 | 7.07817 | 14247 ft | 359 kts | 338° |
| 2026-05-06 08:39 | 43.74595 | 7.06765 | 14880 ft | 364 kts | 338° |
| 2026-05-06 08:39 | 43.77015 | 7.05698 | 15529 ft | 368 kts | 337° |
| 2026-05-06 08:39 | 43.79465 | 7.04612 | 16167 ft | 372 kts | 337° |
| 2026-05-06 08:40 | 43.81941 | 7.03514 | 16862 ft | 375 kts | 337° |
| 2026-05-06 08:40 | 43.84441 | 7.02405 | 17497 ft | 380 kts | 337° |
| 2026-05-06 08:40 | 43.86968 | 7.01281 | 18174 ft | 383 kts | 336° |
| 2026-05-06 08:40 | 43.89482 | 7.00160 | 18719 ft | 387 kts | 336° |
| 2026-05-06 08:41 | 43.92062 | 6.99011 | 19239 ft | 392 kts | 335° |
| 2026-05-06 08:41 | 43.94673 | 6.97849 | 19739 ft | 397 kts | 335° |
| 2026-05-06 08:41 | 43.97315 | 6.96671 | 20271 ft | 400 kts | 335° |
| 2026-05-06 08:41 | 43.99978 | 6.95481 | 20738 ft | 404 kts | 334° |
| 2026-05-06 08:42 | 44.02660 | 6.94281 | 21245 ft | 408 kts | 334° |
| 2026-05-06 08:42 | 44.05372 | 6.93065 | 21647 ft | 411 kts | 334° |
| 2026-05-06 08:42 | 44.08113 | 6.91837 | 22121 ft | 416 kts | 334° |
| 2026-05-06 08:42 | 44.10879 | 6.90593 | 22634 ft | 420 kts | 333° |
| 2026-05-06 08:43 | 44.13682 | 6.89376 | 23069 ft | 427 kts | 337° |
| 2026-05-06 08:43 | 44.16656 | 6.88659 | 23507 ft | 441 kts | 346° |
| 2026-05-06 08:43 | 44.19723 | 6.88220 | 23877 ft | 444 kts | 346° |
| 2026-05-06 08:43 | 44.22801 | 6.87770 | 24290 ft | 447 kts | 346° |
| 2026-05-06 08:44 | 44.25910 | 6.87307 | 24664 ft | 451 kts | 346° |
| 2026-05-06 08:44 | 44.29039 | 6.86834 | 25058 ft | 454 kts | 346° |
| 2026-05-06 08:44 | 44.32186 | 6.86352 | 25483 ft | 457 kts | 346° |
| 2026-05-06 08:44 | 44.35352 | 6.85864 | 25885 ft | 460 kts | 346° |
| 2026-05-06 08:45 | 44.38546 | 6.85372 | 26324 ft | 463 kts | 346° |
| 2026-05-06 08:45 | 44.41756 | 6.84881 | 26697 ft | 466 kts | 346° |
| 2026-05-06 08:45 | 44.44986 | 6.84390 | 27010 ft | 469 kts | 347° |
| 2026-05-06 08:45 | 44.48241 | 6.83898 | 27499 ft | 471 kts | 347° |
| 2026-05-06 08:46 | 44.51503 | 6.83402 | 27911 ft | 473 kts | 347° |
| 2026-05-06 08:46 | 44.54787 | 6.82901 | 28326 ft | 476 kts | 347° |
| 2026-05-06 08:46 | 44.58089 | 6.82398 | 28701 ft | 479 kts | 347° |
| 2026-05-06 08:46 | 44.61412 | 6.81892 | 29064 ft | 481 kts | 347° |
| 2026-05-06 08:47 | 44.64748 | 6.81382 | 29398 ft | 484 kts | 347° |
| 2026-05-06 08:47 | 44.68106 | 6.80864 | 29753 ft | 487 kts | 347° |
| 2026-05-06 08:47 | 44.71484 | 6.80341 | 30080 ft | 489 kts | 347° |
| 2026-05-06 08:47 | 44.74871 | 6.79818 | 30338 ft | 492 kts | 347° |
| 2026-05-06 08:48 | 44.78279 | 6.79292 | 30632 ft | 494 kts | 347° |
| 2026-05-06 08:48 | 44.81661 | 6.78810 | 30938 ft | 497 kts | 349° |
| 2026-05-06 08:48 | 44.85151 | 6.78467 | 31212 ft | 500 kts | 351° |
| 2026-05-06 08:48 | 44.88563 | 6.78255 | 31564 ft | 501 kts | 353° |
| 2026-05-06 08:49 | 44.92043 | 6.78104 | 32015 ft | 499 kts | 353° |
| 2026-05-06 08:49 | 44.95506 | 6.77963 | 32420 ft | 498 kts | 353° |
| 2026-05-06 08:49 | 44.98963 | 6.77800 | 32794 ft | 497 kts | 352° |
| 2026-05-06 08:49 | 45.02369 | 6.77613 | 33223 ft | 496 kts | 352° |
| 2026-05-06 08:50 | 45.05812 | 6.77395 | 33620 ft | 495 kts | 352° |
| 2026-05-06 08:50 | 45.09245 | 6.77159 | 33986 ft | 494 kts | 352° |
| 2026-05-06 08:50 | 45.12678 | 6.76918 | 34273 ft | 494 kts | 352° |
| 2026-05-06 08:50 | 45.16107 | 6.76677 | 34652 ft | 493 kts | 352° |
| 2026-05-06 08:51 | 45.19526 | 6.76442 | 35011 ft | 491 kts | 353° |
| 2026-05-06 08:51 | 45.22938 | 6.76208 | 35300 ft | 491 kts | 353° |
| 2026-05-06 08:51 | 45.26355 | 6.75973 | 35635 ft | 490 kts | 353° |
| 2026-05-06 08:51 | 45.29759 | 6.75743 | 35972 ft | 489 kts | 353° |
| 2026-05-06 08:52 | 45.33155 | 6.75519 | 36312 ft | 488 kts | 353° |
| 2026-05-06 08:52 | 45.36540 | 6.75297 | 36618 ft | 487 kts | 353° |
| 2026-05-06 08:52 | 45.39920 | 6.75075 | 36924 ft | 486 kts | 353° |
| 2026-05-06 08:52 | 45.43289 | 6.74854 | 37258 ft | 484 kts | 353° |
| 2026-05-06 08:53 | 45.46643 | 6.74633 | 37596 ft | 481 kts | 353° |
| 2026-05-06 08:53 | 45.49990 | 6.74405 | 37824 ft | 482 kts | 353° |
| 2026-05-06 08:53 | 45.53340 | 6.74173 | 37876 ft | 481 kts | 353° |
| 2026-05-06 08:54 | 45.60024 | 6.73712 | 37883 ft | 481 kts | 353° |
| 2026-05-06 08:54 | 45.66711 | 6.73252 | 37887 ft | 481 kts | 353° |
| 2026-05-06 08:55 | 45.72263 | 6.72875 | 37894 ft | 481 kts | 353° |
| 2026-05-06 08:55 | 45.78946 | 6.72413 | 37904 ft | 481 kts | 353° |
| 2026-05-06 08:56 | 45.85635 | 6.71951 | 37882 ft | 481 kts | 353° |
| 2026-05-06 08:56 | 45.92333 | 6.71486 | 37905 ft | 482 kts | 354° |
| 2026-05-06 08:57 | 45.99037 | 6.71032 | 37912 ft | 482 kts | 354° |
| 2026-05-06 08:57 | 46.05730 | 6.70580 | 37892 ft | 481 kts | 353° |
| 2026-05-06 08:58 | 46.12386 | 6.69867 | 37892 ft | 477 kts | 345° |
| 2026-05-06 08:58 | 46.18682 | 6.67177 | 37898 ft | 471 kts | 337° |
| 2026-05-06 08:59 | 46.24882 | 6.64156 | 37902 ft | 470 kts | 337° |
| 2026-05-06 08:59 | 46.31035 | 6.61171 | 37892 ft | 468 kts | 337° |
| 2026-05-06 09:00 | 46.37201 | 6.58155 | 37899 ft | 467 kts | 337° |
| 2026-05-06 09:00 | 46.43358 | 6.55142 | 37895 ft | 466 kts | 338° |
| 2026-05-06 09:01 | 46.49501 | 6.52147 | 37893 ft | 465 kts | 338° |
| 2026-05-06 09:01 | 46.55631 | 6.49134 | 37880 ft | 465 kts | 338° |
| 2026-05-06 09:02 | 46.61749 | 6.46106 | 37904 ft | 465 kts | 338° |
| 2026-05-06 09:02 | 46.67870 | 6.43069 | 37893 ft | 465 kts | 338° |
| 2026-05-06 09:03 | 46.73985 | 6.40035 | 37884 ft | 464 kts | 338° |
| 2026-05-06 09:03 | 46.80105 | 6.36998 | 37873 ft | 464 kts | 338° |
| 2026-05-06 09:04 | 46.86225 | 6.33963 | 37865 ft | 465 kts | 338° |
| 2026-05-06 09:04 | 46.92359 | 6.30921 | 37856 ft | 466 kts | 338° |
| 2026-05-06 09:05 | 46.98492 | 6.27847 | 37852 ft | 466 kts | 338° |
| 2026-05-06 09:05 | 47.04634 | 6.24749 | 37859 ft | 467 kts | 338° |
| 2026-05-06 09:06 | 47.10538 | 6.20884 | 37849 ft | 465 kts | 330° |
| 2026-05-06 09:06 | 47.16345 | 6.16688 | 37864 ft | 465 kts | 330° |
| 2026-05-06 09:07 | 47.22161 | 6.12497 | 37857 ft | 465 kts | 330° |
| 2026-05-06 09:07 | 47.27974 | 6.08289 | 37862 ft | 466 kts | 330° |
| 2026-05-06 09:08 | 47.33934 | 6.04512 | 37847 ft | 469 kts | 342° |
| 2026-05-06 09:08 | 47.40389 | 6.03366 | 37845 ft | 474 kts | 359° |
| 2026-05-06 09:09 | 47.47000 | 6.03523 | 37850 ft | 475 kts | 359° |
| 2026-05-06 09:09 | 47.53616 | 6.03677 | 37848 ft | 475 kts | 359° |
| 2026-05-06 09:10 | 47.60234 | 6.03823 | 37849 ft | 476 kts | 359° |
| 2026-05-06 09:10 | 47.66855 | 6.03949 | 37857 ft | 476 kts | 359° |
| 2026-05-06 09:11 | 47.73463 | 6.04097 | 37858 ft | 475 kts | 359° |
| 2026-05-06 09:11 | 47.80070 | 6.04297 | 37857 ft | 474 kts | 359° |
| 2026-05-06 09:12 | 47.86665 | 6.04529 | 37862 ft | 474 kts | 359° |
| 2026-05-06 09:12 | 47.93264 | 6.04747 | 37855 ft | 473 kts | 359° |
| 2026-05-06 09:13 | 47.99842 | 6.04943 | 37848 ft | 473 kts | 359° |
| 2026-05-06 09:13 | 48.06413 | 6.05140 | 37841 ft | 472 kts | 359° |
| 2026-05-06 09:14 | 48.12974 | 6.05346 | 37846 ft | 471 kts | 359° |
| 2026-05-06 09:14 | 48.19522 | 6.05555 | 37837 ft | 470 kts | 359° |
| 2026-05-06 09:15 | 48.26066 | 6.05769 | 37830 ft | 470 kts | 359° |
| 2026-05-06 09:15 | 48.32600 | 6.05974 | 37833 ft | 469 kts | 359° |
| 2026-05-06 09:16 | 48.39127 | 6.06237 | 37832 ft | 469 kts | 0° |
| 2026-05-06 09:16 | 48.45647 | 6.06563 | 37829 ft | 469 kts | 0° |
| 2026-05-06 09:17 | 48.52162 | 6.06892 | 37832 ft | 468 kts | 0° |
| 2026-05-06 09:17 | 48.58672 | 6.07207 | 37848 ft | 468 kts | 0° |
| 2026-05-06 09:18 | 48.65190 | 6.07508 | 37834 ft | 469 kts | 0° |
| 2026-05-06 09:18 | 48.71707 | 6.07817 | 37829 ft | 468 kts | 0° |
| 2026-05-06 09:19 | 48.78220 | 6.08127 | 37829 ft | 468 kts | 0° |
| 2026-05-06 09:19 | 48.84691 | 6.08443 | 37824 ft | 468 kts | 0° |
| 2026-05-06 09:20 | 48.91201 | 6.08753 | 37824 ft | 468 kts | 0° |
| 2026-05-06 09:20 | 48.97709 | 6.09061 | 37830 ft | 467 kts | 0° |
| 2026-05-06 09:21 | 49.04205 | 6.09368 | 37828 ft | 467 kts | 0° |
| 2026-05-06 09:21 | 49.10695 | 6.09683 | 37822 ft | 466 kts | 0° |
| 2026-05-06 09:22 | 49.17182 | 6.10013 | 37821 ft | 466 kts | 0° |
| 2026-05-06 09:22 | 49.23661 | 6.10331 | 37807 ft | 466 kts | 0° |
| 2026-05-06 09:23 | 49.30129 | 6.10628 | 37800 ft | 465 kts | 0° |
| 2026-05-06 09:23 | 49.36605 | 6.10932 | 37801 ft | 465 kts | 0° |
| 2026-05-06 09:24 | 49.43066 | 6.11115 | 37799 ft | 464 kts | 354° |
| 2026-05-06 09:24 | 49.49281 | 6.08906 | 37790 ft | 458 kts | 334° |
| 2026-05-06 09:25 | 49.54718 | 6.03953 | 37776 ft | 454 kts | 323° |
| 2026-05-06 09:25 | 49.59905 | 5.98399 | 37773 ft | 454 kts | 323° |
| 2026-05-06 09:26 | 49.65060 | 5.92869 | 37773 ft | 455 kts | 323° |
| 2026-05-06 09:26 | 49.70256 | 5.87283 | 37776 ft | 455 kts | 323° |
| 2026-05-06 09:27 | 49.75446 | 5.81678 | 37786 ft | 455 kts | 323° |
| 2026-05-06 09:27 | 49.80638 | 5.76051 | 37797 ft | 455 kts | 323° |
| 2026-05-06 09:28 | 49.85820 | 5.70424 | 37804 ft | 455 kts | 323° |
| 2026-05-06 09:28 | 49.91004 | 5.64780 | 37817 ft | 455 kts | 323° |
| 2026-05-06 09:29 | 49.96186 | 5.59131 | 37830 ft | 455 kts | 323° |
| 2026-05-06 09:29 | 50.01362 | 5.53471 | 37829 ft | 455 kts | 323° |
| 2026-05-06 09:30 | 50.06536 | 5.47793 | 37846 ft | 455 kts | 323° |
| 2026-05-06 09:30 | 50.11711 | 5.42105 | 37841 ft | 456 kts | 322° |
| 2026-05-06 09:31 | 50.16885 | 5.36389 | 37834 ft | 456 kts | 322° |
| 2026-05-06 09:31 | 50.22058 | 5.30666 | 37854 ft | 456 kts | 322° |
| 2026-05-06 09:32 | 50.27239 | 5.24938 | 37853 ft | 456 kts | 322° |
| 2026-05-06 09:32 | 50.32416 | 5.19192 | 37857 ft | 457 kts | 322° |
| 2026-05-06 09:33 | 50.37593 | 5.13432 | 37856 ft | 456 kts | 322° |
| 2026-05-06 09:33 | 50.42760 | 5.07653 | 37861 ft | 456 kts | 322° |
| 2026-05-06 09:34 | 50.47923 | 5.01865 | 37863 ft | 456 kts | 322° |
| 2026-05-06 09:34 | 50.53079 | 4.96066 | 37873 ft | 456 kts | 322° |
| 2026-05-06 09:35 | 50.58235 | 4.90247 | 37867 ft | 456 kts | 322° |
| 2026-05-06 09:35 | 50.63348 | 4.84461 | 37871 ft | 456 kts | 322° |
| 2026-05-06 09:36 | 50.68496 | 4.78631 | 37869 ft | 456 kts | 322° |
| 2026-05-06 09:36 | 50.73641 | 4.72794 | 37494 ft | 455 kts | 322° |
| 2026-05-06 09:36 | 50.76204 | 4.69880 | 37238 ft | 454 kts | 322° |
| 2026-05-06 09:37 | 50.78759 | 4.66975 | 36750 ft | 452 kts | 322° |
| 2026-05-06 09:37 | 50.81315 | 4.64060 | 36098 ft | 453 kts | 323° |
| 2026-05-06 09:37 | 50.83867 | 4.61136 | 35375 ft | 454 kts | 322° |
| 2026-05-06 09:37 | 50.86436 | 4.58182 | 34519 ft | 460 kts | 323° |
| 2026-05-06 09:38 | 50.88931 | 4.54980 | 33593 ft | 463 kts | 316° |
| 2026-05-06 09:38 | 50.91085 | 4.51197 | 32843 ft | 461 kts | 307° |
| 2026-05-06 09:38 | 50.92854 | 4.47021 | 32369 ft | 454 kts | 301° |
| 2026-05-06 09:38 | 50.94504 | 4.42780 | 31796 ft | 450 kts | 301° |
| 2026-05-06 09:39 | 50.96136 | 4.38570 | 31243 ft | 446 kts | 301° |
| 2026-05-06 09:39 | 50.97751 | 4.34391 | 30687 ft | 442 kts | 301° |
| 2026-05-06 09:39 | 50.99349 | 4.30238 | 30150 ft | 439 kts | 301° |
| 2026-05-06 09:39 | 51.00929 | 4.26118 | 29564 ft | 435 kts | 301° |
| 2026-05-06 09:40 | 51.02492 | 4.22035 | 29042 ft | 430 kts | 301° |
| 2026-05-06 09:40 | 51.04036 | 4.18001 | 28517 ft | 425 kts | 301° |
| 2026-05-06 09:40 | 51.07060 | 4.10069 | 27513 ft | 415 kts | 301° |
| 2026-05-06 09:41 | 51.08585 | 4.06208 | 27018 ft | 410 kts | 306° |
| 2026-05-06 09:41 | 51.10423 | 4.02787 | 26534 ft | 405 kts | 316° |
| 2026-05-06 09:41 | 51.12575 | 3.99948 | 26070 ft | 400 kts | 324° |
| 2026-05-06 09:41 | 51.14804 | 3.97344 | 25615 ft | 395 kts | 323° |
| 2026-05-06 09:42 | 51.16995 | 3.94759 | 25175 ft | 390 kts | 323° |
| 2026-05-06 09:42 | 51.19158 | 3.92190 | 24737 ft | 385 kts | 323° |
| 2026-05-06 09:42 | 51.21358 | 3.89793 | 24309 ft | 381 kts | 331° |
| 2026-05-06 09:42 | 51.23756 | 3.88068 | 23884 ft | 377 kts | 341° |
| 2026-05-06 09:43 | 51.26266 | 3.87097 | 23425 ft | 379 kts | 352° |
| 2026-05-06 09:43 | 51.28894 | 3.86843 | 22914 ft | 378 kts | 359° |
| 2026-05-06 09:43 | 51.31520 | 3.86796 | 22456 ft | 376 kts | 359° |
| 2026-05-06 09:43 | 51.34132 | 3.86737 | 21991 ft | 374 kts | 358° |
| 2026-05-06 09:44 | 51.36721 | 3.86674 | 21532 ft | 371 kts | 359° |
| 2026-05-06 09:44 | 51.39297 | 3.86612 | 21077 ft | 369 kts | 358° |
| 2026-05-06 09:44 | 51.41855 | 3.86547 | 20629 ft | 367 kts | 358° |
| 2026-05-06 09:44 | 51.43577 | 3.86504 | 20326 ft | 365 kts | 359° |
| 2026-05-06 09:45 | 51.46108 | 3.86442 | 19884 ft | 363 kts | 358° |
| 2026-05-06 09:45 | 51.48626 | 3.86382 | 19431 ft | 361 kts | 358° |
| 2026-05-06 09:45 | 51.51132 | 3.86324 | 18990 ft | 359 kts | 359° |
| 2026-05-06 09:45 | 51.53622 | 3.86268 | 18557 ft | 357 kts | 359° |
| 2026-05-06 09:46 | 51.56102 | 3.86210 | 18111 ft | 356 kts | 359° |
| 2026-05-06 09:46 | 51.58537 | 3.86152 | 17647 ft | 353 kts | 359° |
| 2026-05-06 09:46 | 51.61014 | 3.86092 | 17210 ft | 350 kts | 359° |
| 2026-05-06 09:46 | 51.63399 | 3.86032 | 16789 ft | 345 kts | 359° |
| 2026-05-06 09:47 | 51.65785 | 3.85971 | 16374 ft | 341 kts | 359° |
| 2026-05-06 09:47 | 51.68138 | 3.85913 | 15961 ft | 336 kts | 359° |
| 2026-05-06 09:47 | 51.70452 | 3.86235 | 15555 ft | 332 kts | 11° |
| 2026-05-06 09:47 | 51.72636 | 3.87371 | 15143 ft | 329 kts | 24° |
| 2026-05-06 09:48 | 51.74604 | 3.89239 | 14743 ft | 329 kts | 37° |
| 2026-05-06 09:48 | 51.76336 | 3.91654 | 14337 ft | 329 kts | 41° |
| 2026-05-06 09:48 | 51.78036 | 3.94111 | 13933 ft | 327 kts | 40° |
| 2026-05-06 09:48 | 51.79723 | 3.96546 | 13513 ft | 325 kts | 41° |
| 2026-05-06 09:49 | 51.81403 | 3.98967 | 13096 ft | 322 kts | 40° |
| 2026-05-06 09:49 | 51.83068 | 4.01366 | 12690 ft | 320 kts | 40° |
| 2026-05-06 09:49 | 51.84720 | 4.03753 | 12308 ft | 318 kts | 40° |
| 2026-05-06 09:49 | 51.86358 | 4.06128 | 11921 ft | 315 kts | 40° |
| 2026-05-06 09:50 | 51.87973 | 4.08471 | 11700 ft | 306 kts | 41° |
| 2026-05-06 09:50 | 51.89576 | 4.10627 | 11565 ft | 293 kts | 32° |
| 2026-05-06 09:50 | 51.91351 | 4.12092 | 11435 ft | 281 kts | 19° |
| 2026-05-06 09:50 | 51.93206 | 4.12823 | 11312 ft | 269 kts | 6° |
| 2026-05-06 09:51 | 51.97078 | 4.12631 | 10966 ft | 249 kts | 355° |
| 2026-05-06 09:51 | 51.98803 | 4.12439 | 10643 ft | 248 kts | 355° |
| 2026-05-06 09:51 | 52.00521 | 4.12255 | 10293 ft | 247 kts | 355° |
| 2026-05-06 09:52 | 52.02229 | 4.12071 | 9981 ft | 245 kts | 355° |
| 2026-05-06 09:52 | 52.03916 | 4.11888 | 9700 ft | 241 kts | 355° |
| 2026-05-06 09:52 | 52.05593 | 4.11756 | 9324 ft | 241 kts | 358° |
| 2026-05-06 09:52 | 52.07269 | 4.11624 | 8927 ft | 241 kts | 356° |
| 2026-05-06 09:53 | 52.08959 | 4.11439 | 8595 ft | 239 kts | 355° |
| 2026-05-06 09:53 | 52.10611 | 4.11248 | 8269 ft | 237 kts | 355° |
| 2026-05-06 09:53 | 52.12251 | 4.11053 | 7936 ft | 236 kts | 355° |
| 2026-05-06 09:53 | 52.13885 | 4.10855 | 7595 ft | 236 kts | 355° |
| 2026-05-06 09:54 | 52.15517 | 4.10820 | 7269 ft | 234 kts | 11° |
| 2026-05-06 09:54 | 52.16951 | 4.11977 | 6985 ft | 232 kts | 43° |
| 2026-05-06 09:54 | 52.17780 | 4.14210 | 6652 ft | 235 kts | 74° |
| 2026-05-06 09:54 | 52.18050 | 4.16853 | 6301 ft | 237 kts | 81° |
| 2026-05-06 09:55 | 52.18213 | 4.19522 | 5986 ft | 236 kts | 83° |
| 2026-05-06 09:55 | 52.18343 | 4.22160 | 5725 ft | 232 kts | 82° |
| 2026-05-06 09:55 | 52.18471 | 4.24722 | 5435 ft | 229 kts | 83° |
| 2026-05-06 09:55 | 52.18604 | 4.27285 | 5156 ft | 226 kts | 82° |
| 2026-05-06 09:56 | 52.18730 | 4.29826 | 4875 ft | 223 kts | 83° |
| 2026-05-06 09:56 | 52.18850 | 4.32333 | 4601 ft | 221 kts | 82° |
| 2026-05-06 09:56 | 52.18963 | 4.34819 | 4307 ft | 219 kts | 83° |
| 2026-05-06 09:56 | 52.19077 | 4.37287 | 4012 ft | 217 kts | 83° |
| 2026-05-06 09:57 | 52.19198 | 4.39737 | 3724 ft | 216 kts | 82° |
| 2026-05-06 09:57 | 52.19312 | 4.42133 | 3569 ft | 209 kts | 83° |
| 2026-05-06 09:57 | 52.19419 | 4.44474 | 3327 ft | 206 kts | 83° |
| 2026-05-06 09:57 | 52.19524 | 4.46769 | 3159 ft | 201 kts | 83° |
| 2026-05-06 09:58 | 52.19722 | 4.48992 | 2908 ft | 197 kts | 67° |
| 2026-05-06 09:58 | 52.20265 | 4.51022 | 2656 ft | 194 kts | 62° |
| 2026-05-06 09:58 | 52.20915 | 4.52946 | 2430 ft | 193 kts | 58° |
| 2026-05-06 09:58 | 52.21600 | 4.54775 | 2213 ft | 185 kts | 56° |
| 2026-05-06 09:59 | 52.22260 | 4.56494 | 2012 ft | 167 kts | 57° |
| 2026-05-06 09:59 | 52.22826 | 4.57960 | 1987 ft | 143 kts | 56° |
| 2026-05-06 09:59 | 52.23339 | 4.59287 | 1985 ft | 135 kts | 56° |
| 2026-05-06 09:59 | 52.23838 | 4.60576 | 1906 ft | 134 kts | 56° |
| 2026-05-06 10:00 | 52.24327 | 4.61839 | 1721 ft | 131 kts | 56° |
| 2026-05-06 10:00 | 52.24812 | 4.63093 | 1540 ft | 130 kts | 56° |
| 2026-05-06 10:00 | 52.25296 | 4.64346 | 1356 ft | 131 kts | 56° |
| 2026-05-06 10:00 | 52.25778 | 4.65594 | 1174 ft | 131 kts | 55° |
| 2026-05-06 10:01 | 52.26260 | 4.66843 | 1000 ft | 129 kts | 56° |
| 2026-05-06 10:01 | 52.26736 | 4.68078 | 827 ft | 129 kts | 56° |
| 2026-05-06 10:01 | 52.27214 | 4.69318 | 666 ft | 129 kts | 55° |
| 2026-05-06 10:01 | 52.27692 | 4.70559 | 475 ft | 131 kts | 56° |
| 2026-05-06 10:02 | 52.28182 | 4.71829 | 308 ft | 133 kts | 56° |
| 2026-05-06 10:02 | 52.28663 | 4.73082 | 127 ft | 129 kts | 56° |
| 2026-05-06 10:02 | 52.29139 | 4.74314 | 15 ft | 125 kts | 54° |
| 2026-05-06 10:02 | 52.29513 | 4.75277 | -3 ft | 70 kts | 60° |
| 2026-05-06 10:03 | 52.29710 | 4.75793 | -4 ft | 42 kts | 58° |
| 2026-05-06 10:03 | 52.29861 | 4.76188 | -6 ft | 40 kts | 57° |
| 2026-05-06 10:03 | 52.30012 | 4.76512 | -3 ft | 28 kts | 35° |
| 2026-05-06 10:03 | 52.30132 | 4.76626 | -2 ft | 15 kts | 29° |
| 2026-05-06 10:04 | 52.30200 | 4.76687 | -2 ft | 0 kts | 27° |
| 2026-05-06 10:04 | 52.30242 | 4.76721 | -2 ft | 13 kts | 25° |
| 2026-05-06 10:04 | 52.30325 | 4.76720 | -2 ft | 12 kts | 329° |
| 2026-05-06 10:05 | 52.30359 | 4.76606 | -2 ft | 11 kts | 294° |
| 2026-05-06 10:05 | 52.30393 | 4.76552 | -2 ft | 10 kts | 327° |
| 2026-05-06 10:05 | 52.30453 | 4.76490 | -2 ft | 8 kts | 329° |
| 2026-05-06 10:05 | 52.30492 | 4.76513 | -2 ft | 6 kts | 55° |
| 2026-05-06 10:06 | 52.30507 | 4.76549 | -2 ft | 0 kts | 57° |